Glen Rock, New Jersey
Current Conditions -  °F | °C
As of 11:32 AM on Saturday 20 Dec 2014 (Local Time) from KTEB Reporting Station
Overcast Overcast  
Wind Chill: 26°   Ceiling: 3000
Heat Index: 32°   Visibility: 10mi
Dew Point: 19°   Wind: 7mph
Humidity: 60%   Direction: 310°NW
Pressure: 30.29"   Gusts: NA
Location:  40.96°N, 74.13°W
Report Text: KTEB 201632Z 31006KT 10SM OVC030 00/M07 A3029 RMK AO2
Loading
Personal Weather Stations






























Interactive Weather Map New forecast layout! Learn more

10-Day Weather Forecast

Advertisements
Track Severe Weather on mobile